createdAt,value
2017-05-19T00:01:17.668Z,8
2017-05-19T00:02:17.782Z,8
2017-05-19T00:03:17.716Z,8
2017-05-19T00:04:17.353Z,8
2017-05-19T00:05:17.301Z,8
2017-05-19T00:06:17.240Z,8
2017-05-19T00:07:17.180Z,8
2017-05-19T00:08:17.415Z,8
2017-05-19T00:09:17.368Z,8
2017-05-19T00:10:17.294Z,8
2017-05-19T00:11:17.338Z,8
2017-05-19T00:12:16.870Z,8
2017-05-19T00:13:17.112Z,8
2017-05-19T00:14:17.051Z,8
2017-05-19T00:15:16.691Z,8
2017-05-19T00:16:16.627Z,8
2017-05-19T00:17:16.570Z,8
2017-05-19T00:18:16.514Z,8
2017-05-19T00:19:16.445Z,8
2017-05-19T00:20:16.378Z,8
2017-05-19T00:21:16.034Z,8
2017-05-19T00:22:16.568Z,8
2017-05-19T00:23:16.514Z,8
2017-05-19T00:24:16.435Z,8
2017-05-19T00:25:16.375Z,8
2017-05-19T00:26:16.322Z,8
2017-05-19T00:27:16.269Z,8
2017-05-19T00:28:15.886Z,8
2017-05-19T00:29:15.833Z,8
2017-05-19T00:30:16.073Z,8
2017-05-19T00:31:15.709Z,8
2017-05-19T00:32:15.949Z,8
2017-05-19T00:33:15.835Z,8
2017-05-19T00:34:15.532Z,8
2017-05-19T00:35:15.469Z,8
2017-05-19T00:36:15.401Z,8
2017-05-19T00:37:15.336Z,8
2017-05-19T00:38:14.971Z,8
2017-05-19T00:39:14.911Z,8
2017-05-19T00:40:14.852Z,8
2017-05-19T00:41:14.789Z,8
2017-05-19T00:42:15.033Z,8
2017-05-19T00:43:14.969Z,8
2017-05-19T00:44:14.980Z,8
2017-05-19T00:45:14.853Z,8
2017-05-19T00:46:14.786Z,8
2017-05-19T00:47:14.726Z,8
2017-05-19T00:48:14.971Z,8
2017-05-19T00:49:14.301Z,8
2017-05-19T00:50:14.554Z,8
2017-05-19T00:51:14.486Z,8
2017-05-19T00:52:14.729Z,8
2017-05-19T00:53:14.675Z,8
2017-05-19T00:54:14.298Z,8
2017-05-19T00:55:14.239Z,8
2017-05-19T00:56:14.477Z,8
2017-05-19T00:57:14.415Z,8
2017-05-19T00:58:14.072Z,8
2017-05-19T00:59:14.293Z,8
2017-05-19T01:00:13.957Z,8
2017-05-19T01:01:14.374Z,8
2017-05-19T01:02:13.505Z,8
2017-05-19T01:03:14.052Z,8
2017-05-19T01:04:13.689Z,8
2017-05-19T01:05:13.928Z,8
2017-05-19T01:06:13.564Z,8
2017-05-19T01:07:13.499Z,8
2017-05-19T01:08:13.387Z,8
2017-05-19T01:09:13.377Z,8
2017-05-19T01:10:13.621Z,8
2017-05-19T01:11:13.255Z,8
2017-05-19T01:12:13.196Z,8
2017-05-19T01:13:13.137Z,8
2017-05-19T01:14:13.377Z,8
2017-05-19T01:15:13.324Z,8
2017-05-19T01:16:12.649Z,8
2017-05-19T01:17:12.585Z,8
2017-05-19T01:18:12.825Z,8
2017-05-19T01:19:13.069Z,8
2017-05-19T01:20:12.403Z,8
2017-05-19T01:21:12.651Z,8
2017-05-19T01:22:12.888Z,8
2017-05-19T01:23:12.519Z,8
2017-05-19T01:24:12.770Z,8
2017-05-19T01:25:12.705Z,8
2017-05-19T01:26:12.648Z,8
2017-05-19T01:27:11.985Z,8
2017-05-19T01:28:12.243Z,8
2017-05-19T01:29:12.468Z,8
2017-05-19T01:30:12.244Z,8
2017-05-19T01:31:12.333Z,8
2017-05-19T01:32:12.328Z,8
2017-05-19T01:33:11.915Z,8
2017-05-19T01:34:11.847Z,8
2017-05-19T01:35:12.359Z,8
2017-05-19T01:36:11.425Z,8
2017-05-19T01:37:11.965Z,8
2017-05-19T01:38:11.909Z,8
2017-05-19T01:39:11.541Z,8
2017-05-19T01:40:11.486Z,8
2017-05-19T01:41:11.417Z,8
2017-05-19T01:42:11.663Z,8
2017-05-19T01:43:11.005Z,8
2017-05-19T01:44:11.545Z,8
2017-05-19T01:45:11.484Z,8
2017-05-19T01:46:11.117Z,8
2017-05-19T01:47:11.052Z,8
2017-05-19T01:48:10.997Z,8
2017-05-19T01:49:11.231Z,8
2017-05-19T01:50:10.866Z,8
2017-05-19T01:51:11.114Z,8
2017-05-19T01:52:10.747Z,8
2017-05-19T01:53:10.988Z,8
2017-05-19T01:54:10.321Z,8
2017-05-19T01:55:10.868Z,8
2017-05-19T01:56:11.409Z,8
2017-05-19T01:57:10.437Z,8
2017-05-19T01:58:10.697Z,8
2017-05-19T01:59:10.619Z,8
2017-05-19T02:00:10.611Z,8
2017-05-19T02:01:10.198Z,8
2017-05-19T02:02:10.141Z,8
2017-05-19T02:03:10.126Z,8
2017-05-19T02:04:10.317Z,8
2017-05-19T02:05:09.947Z,8
2017-05-19T02:06:09.887Z,8
2017-05-19T02:07:10.129Z,8
2017-05-19T02:08:10.068Z,8
2017-05-19T02:09:10.008Z,8
2017-05-19T02:10:09.889Z,8
2017-05-19T02:11:09.881Z,8
2017-05-19T02:12:09.530Z,8
2017-05-19T02:13:09.757Z,8
2017-05-19T02:14:09.703Z,4
2017-05-19T02:15:09.278Z,4
2017-05-19T02:16:09.583Z,4
2017-05-19T02:17:08.909Z,4
2017-05-19T02:18:09.452Z,4
2017-05-19T02:19:09.398Z,4
2017-05-19T02:20:08.730Z,4
2017-05-19T02:21:08.968Z,4
2017-05-19T02:22:08.904Z,8
2017-05-19T02:23:09.144Z,4
2017-05-19T02:24:08.782Z,4
2017-05-19T02:25:09.024Z,4
2017-05-19T02:26:08.962Z,4
2017-05-19T02:27:08.903Z,4
2017-05-19T02:28:08.621Z,4
2017-05-19T02:29:08.782Z,4
2017-05-19T02:30:08.718Z,4
2017-05-19T02:31:08.853Z,8
2017-05-19T02:32:08.598Z,4
2017-05-19T02:33:08.531Z,8
2017-05-19T02:34:08.472Z,8
2017-05-19T02:35:08.414Z,8
2017-05-19T02:36:08.054Z,8
2017-05-19T02:37:08.287Z,8
2017-05-19T02:38:08.224Z,8
2017-05-19T02:39:08.198Z,8
2017-05-19T02:40:07.954Z,8
2017-05-19T02:41:08.037Z,8
2017-05-19T02:42:07.679Z,8
2017-05-19T02:43:07.634Z,8
2017-05-19T02:44:07.858Z,8
2017-05-19T02:45:07.810Z,8
2017-05-19T02:46:07.438Z,8
2017-05-19T02:47:07.724Z,8
2017-05-19T02:48:07.626Z,8
2017-05-19T02:49:07.547Z,8
2017-05-19T02:50:07.527Z,8
2017-05-19T02:51:07.426Z,8
2017-05-19T02:52:07.362Z,8
2017-05-19T02:53:07.319Z,8
2017-05-19T02:54:07.243Z,8
2017-05-19T02:55:07.187Z,8
2017-05-19T02:56:07.120Z,8
2017-05-19T02:57:07.054Z,8
2017-05-19T02:58:06.700Z,8
2017-05-19T02:59:06.943Z,8
2017-05-19T03:00:06.599Z,8
2017-05-19T03:01:06.819Z,8
2017-05-19T03:02:06.751Z,8
2017-05-19T03:03:06.690Z,8
2017-05-19T03:04:06.628Z,8
2017-05-19T03:05:06.606Z,8
2017-05-19T03:06:06.504Z,8
2017-05-19T03:07:06.495Z,8
2017-05-19T03:08:06.396Z,8
2017-05-19T03:09:06.025Z,8
2017-05-19T03:10:06.325Z,8
2017-05-19T03:11:06.201Z,8
2017-05-19T03:12:06.135Z,8
2017-05-19T03:13:06.078Z,8
2017-05-19T03:14:06.040Z,8
2017-05-19T03:15:05.653Z,8
2017-05-19T03:16:05.908Z,8
2017-05-19T03:17:05.838Z,8
2017-05-19T03:18:05.768Z,8
2017-05-19T03:19:05.403Z,8
2017-05-19T03:20:05.548Z,8
2017-05-19T03:21:05.595Z,8
2017-05-19T03:22:05.276Z,12
2017-05-19T03:23:05.483Z,12
2017-05-19T03:24:05.111Z,8
2017-05-19T03:25:05.340Z,4
2017-05-19T03:26:04.982Z,4
2017-05-19T03:27:05.218Z,8
2017-05-19T03:28:05.167Z,8
2017-05-19T03:29:05.156Z,8
2017-05-19T03:30:05.044Z,8
2017-05-19T03:31:04.972Z,4
2017-05-19T03:32:04.911Z,8
2017-05-19T03:33:04.855Z,8
2017-05-19T03:34:04.798Z,8
2017-05-19T03:35:04.724Z,8
2017-05-19T03:36:04.663Z,12
2017-05-19T03:37:04.599Z,8
2017-05-19T03:38:04.321Z,8
2017-05-19T03:39:04.487Z,12
2017-05-19T03:40:04.423Z,12
2017-05-19T03:41:04.050Z,12
2017-05-19T03:42:04.300Z,12
2017-05-19T03:43:04.236Z,12
2017-05-19T03:44:04.170Z,12
2017-05-19T03:45:04.474Z,16
2017-05-19T03:46:04.053Z,16
2017-05-19T03:47:03.986Z,12
2017-05-19T03:48:03.931Z,12
2017-05-19T03:49:03.871Z,12
2017-05-19T03:50:03.809Z,16
2017-05-19T03:51:03.763Z,16
2017-05-19T03:52:03.682Z,16
2017-05-19T03:53:03.672Z,20
2017-05-19T03:54:03.560Z,16
2017-05-19T03:55:03.521Z,16
2017-05-19T03:56:03.444Z,20
2017-05-19T03:57:03.369Z,16
2017-05-19T03:58:03.314Z,20
2017-05-19T03:59:03.247Z,20
2017-05-19T04:00:03.295Z,20
2017-05-19T04:01:03.135Z,24
2017-05-19T04:02:03.267Z,20
2017-05-19T04:03:02.744Z,20
2017-05-19T04:04:02.951Z,20
2017-05-19T04:05:02.883Z,24
2017-05-19T04:06:02.823Z,24
2017-05-19T04:07:02.762Z,28
2017-05-19T04:08:02.698Z,24
2017-05-19T04:09:02.635Z,24
2017-05-19T04:10:02.631Z,24
2017-05-19T04:11:02.515Z,28
2017-05-19T04:12:02.456Z,28
2017-05-19T04:13:02.085Z,28
2017-05-19T04:14:02.332Z,28
2017-05-19T04:15:02.266Z,32
2017-05-19T04:16:02.205Z,28
2017-05-19T04:17:02.142Z,28
2017-05-19T04:18:02.079Z,32
2017-05-19T04:19:02.022Z,32
2017-05-19T04:20:01.959Z,32
2017-05-19T04:21:01.896Z,32
2017-05-19T04:22:01.836Z,36
2017-05-19T04:23:01.774Z,36
2017-05-19T04:24:01.111Z,36
2017-05-19T04:25:01.668Z,36
2017-05-19T04:26:01.647Z,36
2017-05-19T04:27:01.528Z,40
2017-05-19T04:28:01.477Z,36
2017-05-19T04:29:01.408Z,40
2017-05-19T04:30:01.349Z,40
2017-05-19T04:31:01.329Z,40
2017-05-19T04:32:01.225Z,44
2017-05-19T04:33:01.163Z,48
2017-05-19T04:34:01.103Z,44
2017-05-19T04:35:00.740Z,48
2017-05-19T04:36:00.971Z,48
2017-05-19T04:37:00.912Z,44
2017-05-19T04:38:00.859Z,48
2017-05-19T04:39:00.788Z,48
2017-05-19T04:40:00.734Z,48
2017-05-19T04:41:00.671Z,48
2017-05-19T04:42:00.817Z,48
2017-05-19T04:43:00.546Z,52
2017-05-19T04:44:00.490Z,48
2017-05-19T04:45:00.420Z,52
2017-05-19T04:46:00.358Z,52
2017-05-19T04:47:00.299Z,56
2017-05-19T04:48:00.243Z,52
2017-05-19T04:49:00.179Z,56
2017-05-19T04:50:00.117Z,56
2017-05-19T04:51:00.049Z,52
2017-05-19T04:51:59.990Z,52
2017-05-19T04:53:00.014Z,56
2017-05-19T04:53:59.869Z,56
2017-05-19T04:54:59.805Z,60
2017-05-19T04:55:59.746Z,56
2017-05-19T04:56:59.688Z,56
2017-05-19T04:57:59.626Z,60
2017-05-19T04:58:59.561Z,64
2017-05-19T04:59:59.498Z,60
2017-05-19T05:00:59.439Z,60
2017-05-19T05:01:59.384Z,64
2017-05-19T05:02:59.318Z,64
2017-05-19T05:03:59.251Z,64
2017-05-19T05:04:59.199Z,64
2017-05-19T05:05:59.128Z,68
2017-05-19T05:06:59.067Z,72
2017-05-19T05:07:59.011Z,72
2017-05-19T05:08:58.952Z,72
2017-05-19T05:09:58.883Z,72
2017-05-19T05:10:58.822Z,72
2017-05-19T05:11:58.758Z,76
2017-05-19T05:12:58.716Z,76
2017-05-19T05:13:58.642Z,76
2017-05-19T05:14:58.579Z,76
2017-05-19T05:15:58.522Z,76
2017-05-19T05:16:58.453Z,76
2017-05-19T05:17:58.396Z,80
2017-05-19T05:18:58.330Z,84
2017-05-19T05:19:58.267Z,80
2017-05-19T05:20:58.213Z,80
2017-05-19T05:21:57.869Z,80
2017-05-19T05:22:57.789Z,76
2017-05-19T05:23:58.018Z,76
2017-05-19T05:24:57.963Z,76
2017-05-19T05:25:57.895Z,80
2017-05-19T05:26:57.542Z,76
2017-05-19T05:27:57.783Z,76
2017-05-19T05:28:57.720Z,76
2017-05-19T05:29:57.658Z,76
2017-05-19T05:30:57.596Z,76
2017-05-19T05:31:57.590Z,76
2017-05-19T05:32:57.474Z,72
2017-05-19T05:33:57.407Z,76
2017-05-19T05:34:57.346Z,76
2017-05-19T05:35:57.283Z,76
2017-05-19T05:36:56.918Z,80
2017-05-19T05:37:57.162Z,80
2017-05-19T05:38:57.100Z,80
2017-05-19T05:39:57.038Z,76
2017-05-19T05:40:56.975Z,76
2017-05-19T05:41:56.916Z,76
2017-05-19T05:42:56.858Z,80
2017-05-19T05:43:56.793Z,76
2017-05-19T05:44:56.727Z,80
2017-05-19T05:45:56.369Z,80
2017-05-19T05:46:56.611Z,80
2017-05-19T05:47:56.242Z,80
2017-05-19T05:48:56.488Z,76
2017-05-19T05:49:56.424Z,76
2017-05-19T05:50:56.391Z,80
2017-05-19T05:51:56.304Z,80
2017-05-19T05:52:56.255Z,80
2017-05-19T05:53:55.887Z,84
2017-05-19T05:54:55.810Z,80
2017-05-19T05:55:56.052Z,84
2017-05-19T05:56:55.687Z,76
2017-05-19T05:57:55.633Z,84
2017-05-19T05:58:55.879Z,84
2017-05-19T05:59:55.806Z,84
2017-05-19T06:00:55.742Z,80
2017-05-19T06:01:55.685Z,84
2017-05-19T06:02:56.829Z,84
2017-05-19T06:03:55.568Z,80
2017-05-19T06:04:55.502Z,80
2017-05-19T06:05:55.432Z,80
2017-05-19T06:06:55.376Z,80
2017-05-19T06:07:55.315Z,80
2017-05-19T06:08:55.250Z,84
2017-05-19T06:09:55.237Z,80
2017-05-19T06:10:54.868Z,84
2017-05-19T06:11:54.763Z,80
2017-05-19T06:12:55.005Z,80
2017-05-19T06:13:54.947Z,80
2017-05-19T06:14:54.898Z,84
2017-05-19T06:15:54.816Z,84
2017-05-19T06:16:54.755Z,84
2017-05-19T06:17:54.700Z,88
2017-05-19T06:18:54.635Z,80
2017-05-19T06:19:54.578Z,80
2017-05-19T06:20:54.208Z,84
2017-05-19T06:21:54.197Z,84
2017-05-19T06:22:54.083Z,84
2017-05-19T06:23:54.325Z,88
2017-05-19T06:24:54.269Z,88
2017-05-19T06:25:54.257Z,88
2017-05-19T06:26:54.140Z,88
2017-05-19T06:27:54.081Z,92
2017-05-19T06:28:54.035Z,88
2017-05-19T06:29:53.967Z,96
2017-05-19T06:30:53.893Z,96
2017-05-19T06:31:53.832Z,100
2017-05-19T06:32:53.775Z,100
2017-05-19T06:33:53.714Z,104
2017-05-19T06:34:53.646Z,104
2017-05-19T06:35:53.586Z,104
2017-05-19T06:36:53.525Z,104
2017-05-19T06:37:53.479Z,104
2017-05-19T06:38:53.099Z,104
2017-05-19T06:39:53.339Z,104
2017-05-19T06:40:53.015Z,100
2017-05-19T06:41:53.219Z,104
2017-05-19T06:42:53.177Z,104
2017-05-19T06:43:53.023Z,100
2017-05-19T06:44:53.062Z,100
2017-05-19T06:45:52.969Z,100
2017-05-19T06:46:52.907Z,100
2017-05-19T06:47:52.555Z,96
2017-05-19T06:48:52.481Z,104
2017-05-19T06:49:52.723Z,100
2017-05-19T06:50:52.665Z,100
2017-05-19T06:51:52.597Z,100
2017-05-19T06:52:52.536Z,100
2017-05-19T06:53:52.477Z,96
2017-05-19T06:54:52.658Z,100
2017-05-19T06:55:52.354Z,100
2017-05-19T06:56:52.292Z,100
2017-05-19T06:57:52.234Z,96
2017-05-19T06:58:52.165Z,100
2017-05-19T06:59:52.108Z,104
2017-05-19T07:00:51.749Z,100
2017-05-19T07:01:51.981Z,108
2017-05-19T07:02:51.929Z,104
2017-05-19T07:03:51.868Z,104
2017-05-19T07:04:51.498Z,112
2017-05-19T07:05:51.744Z,116
2017-05-19T07:06:51.678Z,120
2017-05-19T07:07:51.651Z,124
2017-05-19T07:08:51.556Z,124
2017-05-19T07:09:51.497Z,124
2017-05-19T07:10:51.433Z,124
2017-05-19T07:11:51.367Z,128
2017-05-19T07:12:51.006Z,128
2017-05-19T07:13:51.243Z,124
2017-05-19T07:14:51.180Z,124
2017-05-19T07:15:51.122Z,128
2017-05-19T07:16:51.059Z,136
2017-05-19T07:17:51.001Z,144
2017-05-19T07:18:50.639Z,144
2017-05-19T07:19:50.872Z,152
2017-05-19T07:20:50.816Z,152
2017-05-19T07:21:50.755Z,148
2017-05-19T07:22:50.689Z,148
2017-05-19T07:23:50.692Z,144
2017-05-19T07:24:50.601Z,136
2017-05-19T07:25:50.212Z,136
2017-05-19T07:26:50.441Z,132
2017-05-19T07:27:50.383Z,128
2017-05-19T07:28:50.324Z,124
2017-05-19T07:29:50.256Z,120
2017-05-19T07:30:49.895Z,116
2017-05-19T07:31:50.549Z,112
2017-05-19T07:32:49.783Z,112
2017-05-19T07:33:50.022Z,112
2017-05-19T07:34:50.153Z,108
2017-05-19T07:35:50.191Z,104
2017-05-19T07:36:49.858Z,100
2017-05-19T07:37:49.974Z,108
2017-05-19T07:38:49.705Z,104
2017-05-19T07:39:49.644Z,108
2017-05-19T07:40:49.826Z,108
2017-05-19T07:41:49.520Z,108
2017-05-19T07:42:49.459Z,116
2017-05-19T07:43:49.094Z,112
2017-05-19T07:44:49.039Z,100
2017-05-19T07:45:49.376Z,108
2017-05-19T07:46:49.207Z,112
2017-05-19T07:47:49.162Z,112
2017-05-19T07:48:49.116Z,112
2017-05-19T07:49:49.056Z,112
2017-05-19T07:50:48.912Z,108
2017-05-19T07:51:48.913Z,104
2017-05-19T07:52:48.846Z,104
2017-05-19T07:53:48.798Z,100
2017-05-19T07:54:48.740Z,104
2017-05-19T07:55:48.663Z,100
2017-05-19T07:56:48.618Z,100
2017-05-19T07:57:48.270Z,96
2017-05-19T07:58:48.498Z,96
2017-05-19T07:59:48.426Z,96
2017-05-19T08:00:48.059Z,100
2017-05-19T08:01:47.709Z,100
2017-05-19T08:02:48.238Z,96
2017-05-19T08:03:48.392Z,92
2017-05-19T08:04:48.119Z,96
2017-05-19T08:05:48.043Z,92
2017-05-19T08:06:47.698Z,92
2017-05-19T08:07:47.625Z,84
2017-05-19T08:08:47.870Z,92
2017-05-19T08:09:47.512Z,84
2017-05-19T08:10:47.136Z,92
2017-05-19T08:11:47.373Z,92
2017-05-19T08:12:47.619Z,88
2017-05-19T08:13:47.548Z,88
2017-05-19T08:14:47.566Z,88
2017-05-19T08:15:47.127Z,76
2017-05-19T08:16:47.418Z,76
2017-05-19T08:17:47.297Z,76
2017-05-19T08:18:47.310Z,84
2017-05-19T08:19:47.180Z,80
2017-05-19T08:20:47.125Z,80
2017-05-19T08:21:46.757Z,76
2017-05-19T08:22:46.395Z,88
2017-05-19T08:23:46.666Z,76
2017-05-19T08:24:46.569Z,80
2017-05-19T08:25:46.811Z,76
2017-05-19T08:26:46.746Z,80
2017-05-19T08:27:46.682Z,80
2017-05-19T08:28:46.632Z,80
2017-05-19T08:29:46.580Z,76
2017-05-19T08:30:46.520Z,76
2017-05-19T08:31:46.132Z,76
2017-05-19T08:32:46.394Z,76
2017-05-19T08:33:46.335Z,76
2017-05-19T08:34:45.951Z,80
2017-05-19T08:35:46.196Z,80
2017-05-19T08:36:46.127Z,76
2017-05-19T08:37:46.075Z,76
2017-05-19T08:38:46.016Z,76
2017-05-19T08:39:45.646Z,68
2017-05-19T08:40:45.956Z,76
2017-05-19T08:41:45.822Z,76
2017-05-19T08:42:45.466Z,76
2017-05-19T08:43:45.700Z,76
2017-05-19T08:44:45.641Z,76
2017-05-19T08:45:45.575Z,80
2017-05-19T08:46:45.559Z,80
2017-05-19T08:47:45.467Z,80
2017-05-19T08:48:45.092Z,80
2017-05-19T08:49:45.025Z,76
2017-05-19T08:50:45.285Z,76
2017-05-19T08:51:44.903Z,80
2017-05-19T08:52:45.150Z,80
2017-05-19T08:53:44.781Z,80
2017-05-19T08:54:45.028Z,80
2017-05-19T08:55:44.960Z,84
2017-05-19T08:56:44.900Z,84
2017-05-19T08:57:44.843Z,84
2017-05-19T08:58:44.779Z,76
2017-05-19T08:59:44.417Z,76
2017-05-19T09:00:44.671Z,76
2017-05-19T09:01:44.588Z,80
2017-05-19T09:02:44.531Z,80
2017-05-19T09:03:44.481Z,84
2017-05-19T09:04:44.405Z,84
2017-05-19T09:05:44.349Z,88
2017-05-19T09:06:44.340Z,84
2017-05-19T09:07:43.625Z,92
2017-05-19T09:08:43.878Z,92
2017-05-19T09:09:44.097Z,96
2017-05-19T09:10:44.038Z,92
2017-05-19T09:11:43.674Z,96
2017-05-19T09:12:43.921Z,92
2017-05-19T09:13:43.859Z,96
2017-05-19T09:14:43.796Z,100
2017-05-19T09:15:43.443Z,104
2017-05-19T09:16:43.378Z,104
2017-05-19T09:17:43.616Z,104
2017-05-19T09:18:43.548Z,104
2017-05-19T09:19:43.183Z,108
2017-05-19T09:20:43.120Z,112
2017-05-19T09:21:43.360Z,116
2017-05-19T09:22:42.997Z,124
2017-05-19T09:23:42.937Z,128
2017-05-19T09:24:43.172Z,136
2017-05-19T09:25:43.123Z,144
2017-05-19T09:26:43.060Z,152
2017-05-19T09:27:42.996Z,148
2017-05-19T09:28:42.954Z,156
2017-05-19T09:29:42.887Z,152
2017-05-19T09:30:42.804Z,148
2017-05-19T09:31:42.747Z,148
2017-05-19T09:32:42.688Z,148
2017-05-19T09:33:42.630Z,152
2017-05-19T09:34:42.561Z,152
2017-05-19T09:35:42.507Z,160
2017-05-19T09:36:42.136Z,172
2017-05-19T09:37:42.376Z,184
2017-05-19T09:38:42.315Z,192
2017-05-19T09:39:42.261Z,192
2017-05-19T09:40:41.965Z,192
2017-05-19T09:41:42.134Z,184
2017-05-19T09:42:42.155Z,184
2017-05-19T09:43:41.709Z,188
2017-05-19T09:44:41.644Z,188
2017-05-19T09:45:41.890Z,192
2017-05-19T09:46:41.531Z,196
2017-05-19T09:47:41.776Z,200
2017-05-19T09:48:40.796Z,204
2017-05-19T09:49:41.368Z,212
2017-05-19T09:50:41.950Z,220
2017-05-19T09:51:41.221Z,228
2017-05-19T09:52:41.460Z,236
2017-05-19T09:53:41.403Z,236
2017-05-19T09:54:41.343Z,240
2017-05-19T09:55:41.519Z,240
2017-05-19T09:56:41.206Z,232
2017-05-19T09:57:41.164Z,224
2017-05-19T09:58:41.088Z,220
2017-05-19T09:59:41.024Z,216
2017-05-19T10:00:41.374Z,228
2017-05-19T10:01:40.776Z,228
2017-05-19T10:02:40.841Z,232
2017-05-19T10:03:40.795Z,232
2017-05-19T10:04:40.745Z,232
2017-05-19T10:05:40.406Z,236
2017-05-19T10:06:40.306Z,240
2017-05-19T10:07:40.236Z,244
2017-05-19T10:08:40.534Z,240
2017-05-19T10:09:40.109Z,232
2017-05-19T10:10:40.112Z,224
2017-05-19T10:11:40.292Z,220
2017-05-19T10:12:40.226Z,220
2017-05-19T10:13:40.165Z,220
2017-05-19T10:14:40.101Z,232
2017-05-19T10:15:40.042Z,236
2017-05-19T10:16:40.001Z,240
2017-05-19T10:17:39.921Z,244
2017-05-19T10:18:39.579Z,248
2017-05-19T10:19:39.575Z,252
2017-05-19T10:20:39.127Z,252
2017-05-19T10:21:39.383Z,252
2017-05-19T10:22:39.614Z,248
2017-05-19T10:23:39.903Z,244
2017-05-19T10:24:39.195Z,240
2017-05-19T10:25:39.440Z,228
2017-05-19T10:26:39.389Z,228
2017-05-19T10:27:39.317Z,216
2017-05-19T10:28:39.253Z,220
2017-05-19T10:29:39.182Z,228
2017-05-19T10:30:39.126Z,232
2017-05-19T10:31:38.802Z,236
2017-05-19T10:32:39.002Z,236
2017-05-19T10:33:38.336Z,236
2017-05-19T10:34:38.878Z,236
2017-05-19T10:35:39.016Z,232
2017-05-19T10:36:38.766Z,228
2017-05-19T10:37:38.704Z,224
2017-05-19T10:38:38.051Z,224
2017-05-19T10:39:38.278Z,224
2017-05-19T10:40:38.207Z,220
2017-05-19T10:41:38.156Z,220
2017-05-19T10:42:38.395Z,212
2017-05-19T10:43:38.333Z,220
2017-05-19T10:44:38.030Z,216
2017-05-19T10:45:38.210Z,216
2017-05-19T10:46:37.854Z,216
2017-05-19T10:47:37.789Z,216
2017-05-19T10:48:38.029Z,216
2017-05-19T10:49:37.353Z,208
2017-05-19T10:50:37.699Z,200
2017-05-19T10:51:37.860Z,196
2017-05-19T10:52:37.511Z,196
2017-05-19T10:53:37.421Z,196
2017-05-19T10:54:37.659Z,192
2017-05-19T10:55:37.695Z,192
2017-05-19T10:56:37.594Z,188
2017-05-19T10:57:37.471Z,188
2017-05-19T10:58:36.813Z,184
2017-05-19T10:59:37.066Z,180
2017-05-19T11:00:36.951Z,176
2017-05-19T11:01:36.632Z,140
2017-05-19T11:02:36.871Z,176
2017-05-19T11:03:36.807Z,180
2017-05-19T11:04:36.748Z,176
2017-05-19T11:05:36.682Z,176
2017-05-19T11:06:36.932Z,172
2017-05-19T11:07:36.572Z,172
2017-05-19T11:08:36.720Z,168
2017-05-19T11:09:36.745Z,168
2017-05-19T11:10:36.680Z,164
2017-05-19T11:11:36.336Z,156
2017-05-19T11:12:36.261Z,156
2017-05-19T11:13:35.897Z,152
2017-05-19T11:14:35.841Z,152
2017-05-19T11:15:36.177Z,152
2017-05-19T11:16:36.242Z,148
2017-05-19T11:17:35.960Z,148
2017-05-19T11:18:35.591Z,152
2017-05-19T11:19:35.833Z,148
2017-05-19T11:20:36.232Z,144
2017-05-19T11:21:35.715Z,144
2017-05-19T11:22:35.650Z,144
2017-05-19T11:23:35.588Z,144
2017-05-19T11:24:35.534Z,148
2017-05-19T11:25:35.779Z,148
2017-05-19T11:26:35.708Z,148
2017-05-19T11:27:35.380Z,148
2017-05-19T11:28:35.594Z,148
2017-05-19T11:29:35.524Z,144
2017-05-19T11:30:35.476Z,148
2017-05-19T11:31:35.123Z,144
2017-05-19T11:32:35.470Z,144
2017-05-19T11:33:34.982Z,144
2017-05-19T11:34:34.926Z,144
2017-05-19T11:35:35.162Z,144
2017-05-19T11:36:34.904Z,148
2017-05-19T11:37:35.043Z,148
2017-05-19T11:38:34.677Z,140
2017-05-19T11:39:34.635Z,136
2017-05-19T11:40:34.959Z,136
2017-05-19T11:41:34.493Z,136
2017-05-19T11:42:34.737Z,132
2017-05-19T11:43:34.390Z,132
2017-05-19T11:44:34.320Z,132
2017-05-19T11:45:34.882Z,128
2017-05-19T11:46:34.323Z,128
2017-05-19T11:47:34.552Z,132
2017-05-19T11:48:34.503Z,132
2017-05-19T11:49:34.363Z,128
2017-05-19T11:50:34.356Z,124
2017-05-19T11:51:33.700Z,120
2017-05-19T11:52:33.539Z,120
2017-05-19T11:53:33.832Z,120
2017-05-19T11:54:34.255Z,116
2017-05-19T11:55:33.799Z,120
2017-05-19T11:56:33.684Z,120
2017-05-19T11:57:33.827Z,120
2017-05-19T11:58:33.528Z,120
2017-05-19T11:59:33.412Z,120
2017-05-19T12:00:33.650Z,120
2017-05-19T12:01:33.585Z,120
2017-05-19T12:02:33.295Z,116
2017-05-19T12:03:33.482Z,116
2017-05-19T12:04:33.531Z,112
2017-05-19T12:05:33.048Z,112
2017-05-19T12:06:32.978Z,112
2017-05-19T12:07:33.235Z,112
2017-05-19T12:08:33.176Z,112
2017-05-19T12:09:32.801Z,112
2017-05-19T12:10:32.739Z,116
2017-05-19T12:11:32.980Z,116
2017-05-19T12:12:32.622Z,116
2017-05-19T12:13:32.858Z,116
2017-05-19T12:14:32.800Z,116
2017-05-19T12:15:32.749Z,112
2017-05-19T12:16:32.680Z,116
2017-05-19T12:17:32.623Z,116
2017-05-19T12:18:32.561Z,112
2017-05-19T12:19:32.206Z,116
2017-05-19T12:20:32.374Z,116
2017-05-19T12:21:32.074Z,120
2017-05-19T12:22:32.352Z,116
2017-05-19T12:23:31.956Z,116
2017-05-19T12:24:32.196Z,116
2017-05-19T12:25:31.962Z,116
2017-05-19T12:26:32.074Z,116
2017-05-19T12:27:32.012Z,116
2017-05-19T12:28:31.954Z,116
2017-05-19T12:29:31.284Z,116
2017-05-19T12:30:31.223Z,116
2017-05-19T12:31:31.465Z,116
2017-05-19T12:32:31.412Z,116
2017-05-19T12:33:31.650Z,116
2017-05-19T12:34:31.598Z,224
2017-05-19T12:35:31.225Z,264
2017-05-19T12:36:30.866Z,272
2017-05-19T12:37:31.410Z,276
2017-05-19T12:38:31.366Z,276
2017-05-19T12:39:31.289Z,276
2017-05-19T12:40:31.225Z,280
2017-05-19T12:41:31.164Z,280
2017-05-19T12:42:30.809Z,280
2017-05-19T12:43:31.146Z,276
2017-05-19T12:44:30.983Z,276
2017-05-19T12:45:30.935Z,276
2017-05-19T12:46:30.876Z,276
2017-05-19T12:47:30.805Z,272
2017-05-19T12:48:30.746Z,272
2017-05-19T12:49:30.377Z,272
2017-05-19T12:50:30.015Z,272
2017-05-19T12:51:30.261Z,268
2017-05-19T12:52:30.206Z,272
2017-05-19T12:53:30.470Z,272
2017-05-19T12:54:30.082Z,268
2017-05-19T12:55:30.317Z,272
2017-05-19T12:56:29.955Z,272
2017-05-19T12:57:29.600Z,268
2017-05-19T12:58:30.144Z,272
2017-05-19T12:59:29.798Z,272
2017-05-19T13:00:30.034Z,280
2017-05-19T13:01:29.954Z,280
2017-05-19T13:02:29.895Z,280
2017-05-19T13:03:29.849Z,280
2017-05-19T13:04:29.488Z,284
2017-05-19T13:05:29.737Z,284
2017-05-19T13:06:29.657Z,288
2017-05-19T13:07:29.596Z,288
2017-05-19T13:08:29.537Z,284
2017-05-19T13:09:29.479Z,292
2017-05-19T13:10:29.459Z,296
2017-05-19T13:11:29.049Z,296
2017-05-19T13:12:29.300Z,292
2017-05-19T13:13:29.245Z,296
2017-05-19T13:14:29.202Z,296
2017-05-19T13:15:29.109Z,296
2017-05-19T13:16:29.142Z,292
2017-05-19T13:17:28.693Z,296
2017-05-19T13:18:28.628Z,296
2017-05-19T13:19:28.870Z,296
2017-05-19T13:20:28.814Z,292
2017-05-19T13:21:28.758Z,288
2017-05-19T13:22:28.388Z,284
2017-05-19T13:23:28.349Z,284
2017-05-19T13:24:28.264Z,280
2017-05-19T13:25:28.516Z,276
2017-05-19T13:26:28.447Z,272
2017-05-19T13:27:28.381Z,272
2017-05-19T13:28:28.024Z,276
2017-05-19T13:29:28.264Z,268
2017-05-19T13:30:27.908Z,268
2017-05-19T13:31:28.139Z,268
2017-05-19T13:32:28.082Z,264
2017-05-19T13:33:27.732Z,264
2017-05-19T13:34:27.963Z,260
2017-05-19T13:35:27.552Z,260
2017-05-19T13:36:27.534Z,260
2017-05-19T13:37:27.779Z,264
2017-05-19T13:38:27.720Z,268
2017-05-19T13:39:27.352Z,264
2017-05-19T13:40:27.301Z,264
2017-05-19T13:41:27.534Z,260
2017-05-19T13:42:27.476Z,264
2017-05-19T13:43:27.135Z,264
2017-05-19T13:44:27.051Z,264
2017-05-19T13:45:27.479Z,264
2017-05-19T13:46:27.234Z,260
2017-05-19T13:47:27.173Z,264
2017-05-19T13:48:26.816Z,256
2017-05-19T13:49:26.446Z,260
2017-05-19T13:50:27.253Z,116
2017-05-19T13:51:26.946Z,116
2017-05-19T13:52:26.569Z,112
2017-05-19T13:53:26.514Z,108
2017-05-19T13:54:26.152Z,104
2017-05-19T13:55:26.112Z,108
2017-05-19T13:56:26.334Z,108
2017-05-19T13:57:26.573Z,108
2017-05-19T13:58:26.523Z,104
2017-05-19T13:59:26.154Z,100
2017-05-19T14:00:26.408Z,96
2017-05-19T14:01:26.048Z,100
2017-05-19T14:02:26.321Z,96
2017-05-19T14:03:26.247Z,96
2017-05-19T14:04:26.149Z,92
2017-05-19T14:05:26.085Z,92
2017-05-19T14:06:25.725Z,88
2017-05-19T14:07:25.657Z,88
2017-05-19T14:08:25.650Z,84
2017-05-19T14:09:25.550Z,84